Time;durP1;ratioP1;P1;durP2;ratioP2;P2;SDS_P1;SDS_P2;PMS_P1;PMS_P2;Temp;Humidity;BMP_temperature;BMP_pressure;BME280_temperature;BME280_humidity;BME280_pressure;Samples;Min_cycle;Max_cycle;Signal;HPM_P1;HPM_P2
2022/09/06 00:00:57;;;;;;;2.53;1.63;;;20.70;74.40;;;;;;5072297;28;20140;-80
2022/09/06 00:03:23;;;;;;;2.83;1.70;;;20.70;74.40;;;;;;5089115;28;20040;-80
2022/09/06 00:05:49;;;;;;;1.98;1.38;;;20.70;74.40;;;;;;5106362;28;20508;-80
2022/09/06 00:08:15;;;;;;;3.33;2.17;;;20.60;74.30;;;;;;5055657;28;20062;-80
2022/09/06 00:10:42;;;;;;;2.65;1.63;;;20.60;74.70;;;;;;5106076;28;20455;-80
2022/09/06 00:13:09;;;;;;;2.58;1.70;;;20.60;74.70;;;;;;5072286;28;20047;-80
2022/09/06 00:15:36;;;;;;;3.42;1.90;;;20.60;74.70;;;;;;5055401;28;20063;-80
2022/09/06 00:18:04;;;;;;;3.58;1.88;;;20.50;74.60;;;;;;5106042;28;20043;-80
2022/09/06 00:20:31;;;;;;;2.95;1.77;;;20.50;74.60;;;;;;5055723;28;20454;-80
2022/09/06 00:23:02;;;;;;;2.67;1.63;;;20.50;74.70;;;;;;5054888;28;20056;-80
2022/09/06 00:25:29;;;;;;;2.90;1.67;;;20.50;74.80;;;;;;5105966;28;20049;-80
2022/09/06 00:28:00;;;;;;;2.92;2.13;;;20.50;74.90;;;;;;5071933;28;20591;-80
2022/09/06 00:30:27;;;;;;;3.58;1.90;;;20.50;74.90;;;;;;5071834;28;20494;-80
2022/09/06 00:32:53;;;;;;;2.72;1.60;;;20.40;74.90;;;;;;5071669;28;20036;-80
2022/09/06 00:35:20;;;;;;;3.15;2.20;;;20.40;75.10;;;;;;5054884;28;20033;-80
2022/09/06 00:37:46;;;;;;;3.53;1.98;;;20.40;75.20;;;;;;5071665;28;20122;-80
2022/09/06 00:40:12;;;;;;;4.53;1.80;;;20.40;75.30;;;;;;5105616;28;20472;-80
2022/09/06 00:42:38;;;;;;;3.22;2.00;;;20.40;75.50;;;;;;5105352;28;20463;-80
2022/09/06 00:45:06;;;;;;;2.78;1.95;;;20.30;75.60;;;;;;5071631;28;20036;-80
2022/09/06 00:47:33;;;;;;;3.92;2.00;;;20.30;75.70;;;;;;5071574;28;20044;-80
2022/09/06 00:49:59;;;;;;;2.90;1.77;;;20.20;76.00;;;;;;5054600;28;20084;-80
2022/09/06 00:52:27;;;;;;;3.33;2.10;;;20.20;76.50;;;;;;5105380;28;20029;-80
2022/09/06 00:54:53;;;;;;;4.55;2.20;;;20.10;76.80;;;;;;5105515;28;20037;-80
2022/09/06 00:57:19;;;;;;;2.35;1.70;;;20.10;76.90;;;;;;5071542;28;20507;-80
2022/09/06 00:59:46;;;;;;;3.15;1.73;;;20.00;77.00;;;;;;5105640;28;20092;-80
2022/09/06 01:02:12;;;;;;;2.70;1.75;;;20.00;77.30;;;;;;5055115;28;20052;-80
2022/09/06 01:04:42;;;;;;;3.00;1.98;;;20.00;77.30;;;;;;5070157;28;20331;-80
2022/09/06 01:07:37;;;;;;;3.60;2.03;;;20.00;77.30;;;;;;5104930;28;20303;-80
2022/09/06 01:10:27;;;;;;;3.08;1.80;;;20.00;78.30;;;;;;5041295;28;20052;-80
2022/09/06 01:13:22;;;;;;;2.72;1.85;;;19.90;78.50;;;;;;5070829;28;20072;-80
2022/09/06 01:16:11;;;;;;;3.00;2.03;;;19.80;78.10;;;;;;5070810;28;20037;-80
2022/09/06 01:18:55;;;;;;;3.63;1.85;;;19.80;78.50;;;;;;5104828;28;20040;-80
2022/09/06 01:21:32;;;;;;;3.50;2.10;;;19.80;78.70;;;;;;5054179;28;20413;-80
2022/09/06 01:24:12;;;;;;;4.13;1.85;;;19.70;78.70;;;;;;5070568;28;20516;-80
2022/09/06 01:27:15;;;;;;;4.32;1.77;;;19.70;78.70;;;;;;5070861;28;20083;-80
2022/09/06 01:29:50;;;;;;;4.68;2.22;;;19.70;79.50;;;;;;5070789;28;20045;-80
2022/09/06 01:32:45;;;;;;;3.60;2.05;;;19.70;79.20;;;;;;5104959;28;20036;-80
2022/09/06 01:35:37;;;;;;;3.13;2.05;;;19.60;79.70;;;;;;5040203;28;20185;-80
2022/09/06 01:38:04;;;;;;;3.45;2.10;;;19.60;79.80;;;;;;5104023;28;20074;-80
2022/09/06 01:40:34;;;;;;;3.45;2.00;;;19.60;79.40;;;;;;5104390;28;20041;-80
2022/09/06 01:43:00;;;;;;;3.42;1.95;;;19.60;79.40;;;;;;5104583;28;20382;-80
2022/09/06 01:45:50;;;;;;;4.28;1.90;;;19.50;79.50;;;;;;5070402;28;20489;-80
2022/09/06 01:48:43;;;;;;;3.00;1.83;;;19.60;79.80;;;;;;5070653;28;20044;-80
2022/09/06 01:51:33;;;;;;;2.95;1.67;;;19.60;80.20;;;;;;5053800;28;20406;-80
2022/09/06 01:54:11;;;;;;;2.83;1.90;;;19.60;80.00;;;;;;5104087;28;20040;-80
2022/09/06 01:57:00;;;;;;;3.50;2.50;;;19.60;79.90;;;;;;5103785;28;20454;-80
2022/09/06 01:59:56;;;;;;;3.00;1.90;;;19.70;81.20;;;;;;5053454;28;20505;-80
2022/09/06 02:02:22;;;;;;;3.17;1.77;;;19.70;81.50;;;;;;5104058;28;20039;-80
2022/09/06 02:05:24;;;;;;;2.75;1.73;;;19.70;80.40;;;;;;5069989;28;20044;-80
2022/09/06 02:07:53;;;;;;;4.00;2.55;;;19.60;80.80;;;;;;5040539;28;20538;-80
2022/09/06 02:10:31;;;;;;;3.15;2.25;;;19.60;80.60;;;;;;5053447;28;20044;-80
2022/09/06 02:12:59;;;;;;;2.65;1.90;;;19.60;81.00;;;;;;5053393;28;20040;-80
2022/09/06 02:15:31;;;;;;;3.05;2.00;;;19.60;81.10;;;;;;5052381;28;20063;-80
2022/09/06 02:18:02;;;;;;;3.58;2.40;;;19.50;81.40;;;;;;5053219;28;20036;-80
2022/09/06 02:20:34;;;;;;;3.25;2.58;;;19.50;81.70;;;;;;5069920;28;20045;-80
2022/09/06 02:23:04;;;;;;;4.55;2.22;;;19.40;82.00;;;;;;5069844;28;20449;-79
2022/09/06 02:25:42;;;;;;;4.15;2.35;;;19.40;81.90;;;;;;5103574;28;20506;-80
2022/09/06 02:28:09;;;;;;;2.38;1.80;;;19.40;82.50;;;;;;5069595;28;20406;-80
2022/09/06 02:30:39;;;;;;;3.72;2.20;;;19.40;82.30;;;;;;5069498;28;20036;-80
2022/09/06 02:33:11;;;;;;;3.13;1.85;;;19.40;82.60;;;;;;5103646;28;20482;-80
2022/09/06 02:35:46;;;;;;;4.03;2.33;;;19.30;82.50;;;;;;5053201;28;20482;-80
2022/09/06 02:38:13;;;;;;;3.92;2.00;;;19.30;82.80;;;;;;5052592;28;20119;-80
2022/09/06 02:40:38;;;;;;;2.80;1.80;;;19.30;82.80;;;;;;5103090;28;20042;-80
2022/09/06 02:43:05;;;;;;;4.65;2.03;;;19.30;82.80;;;;;;5069408;28;20476;-80
2022/09/06 02:45:31;;;;;;;3.55;2.35;;;19.30;83.00;;;;;;5086266;28;20052;-80
2022/09/06 02:47:56;;;;;;;2.30;1.60;;;19.20;83.20;;;;;;5069122;28;20066;-80
2022/09/06 02:50:22;;;;;;;3.50;2.10;;;19.30;83.50;;;;;;5069123;28;20082;-80
2022/09/06 02:53:04;;;;;;;3.03;1.88;;;19.20;83.80;;;;;;5069433;28;20096;-80
2022/09/06 02:55:29;;;;;;;3.50;2.50;;;19.20;84.90;;;;;;5069335;28;20048;-80
2022/09/06 02:57:55;;;;;;;3.92;2.20;;;19.20;84.20;;;;;;5068925;28;20036;-80
2022/09/06 03:00:21;;;;;;;3.33;2.25;;;19.10;84.30;;;;;;5086112;28;20059;-80
2022/09/06 03:02:46;;;;;;;3.05;1.90;;;19.10;84.50;;;;;;5052674;28;20075;-80
2022/09/06 03:05:12;;;;;;;2.85;1.92;;;19.10;84.70;;;;;;5102829;28;20040;-80
2022/09/06 03:07:38;;;;;;;3.33;2.13;;;19.10;84.90;;;;;;5068666;28;20133;-80
2022/09/06 03:10:04;;;;;;;5.03;2.20;;;19.10;84.70;;;;;;5052137;28;20422;-80
2022/09/06 03:12:30;;;;;;;3.22;1.98;;;19.10;84.70;;;;;;5052256;28;20040;-80
2022/09/06 03:14:55;;;;;;;3.08;2.05;;;19.10;84.60;;;;;;5102805;28;20036;-80
2022/09/06 03:17:21;;;;;;;3.90;2.25;;;19.00;84.60;;;;;;5052238;28;20032;-80
2022/09/06 03:19:47;;;;;;;3.50;2.33;;;19.00;84.70;;;;;;5102858;28;20405;-80
2022/09/06 03:22:12;;;;;;;5.30;2.60;;;19.00;84.70;;;;;;5085867;28;20137;-80
2022/09/06 03:24:38;;;;;;;2.35;1.67;;;19.00;84.90;;;;;;5102318;28;20060;-80
2022/09/06 03:27:03;;;;;;;4.07;2.47;;;18.90;85.00;;;;;;5068609;28;20050;-80
2022/09/06 03:29:29;;;;;;;2.75;1.73;;;18.90;85.10;;;;;;5085313;28;20110;-80
2022/09/06 03:31:54;;;;;;;4.03;2.20;;;18.90;85.10;;;;;;5068716;28;20040;-80
2022/09/06 03:34:20;;;;;;;2.67;1.83;;;18.90;85.10;;;;;;5068593;28;20040;-80
2022/09/06 03:36:46;;;;;;;3.17;2.28;;;18.90;85.10;;;;;;5068496;28;20119;-80
2022/09/06 03:39:11;;;;;;;3.10;2.20;;;19.00;85.30;;;;;;5068409;28;20037;-80
2022/09/06 03:41:37;;;;;;;3.72;2.42;;;19.00;85.30;;;;;;5051828;28;20040;-80
2022/09/06 03:44:03;;;;;;;3.28;2.25;;;19.00;85.10;;;;;;5102266;28;20041;-80
2022/09/06 03:46:29;;;;;;;2.90;1.90;;;19.00;85.10;;;;;;5068921;28;20040;-80
2022/09/06 03:48:56;;;;;;;3.25;2.35;;;19.00;85.10;;;;;;5051680;28;20041;-80
2022/09/06 03:51:22;;;;;;;2.90;2.00;;;19.00;85.00;;;;;;5068264;28;20143;-80
2022/09/06 03:53:47;;;;;;;4.28;2.75;;;19.00;85.10;;;;;;5085631;28;20557;-80
2022/09/06 03:56:13;;;;;;;3.85;2.28;;;19.00;85.00;;;;;;5068734;28;20033;-80
2022/09/06 03:58:38;;;;;;;3.20;2.03;;;19.00;84.90;;;;;;5085353;28;20528;-80
2022/09/06 04:01:07;;;;;;;3.72;2.40;;;19.10;85.00;;;;;;5068685;28;20086;-80
2022/09/06 04:03:34;;;;;;;2.75;2.22;;;19.00;85.00;;;;;;5051931;28;20040;-80
2022/09/06 04:06:00;;;;;;;4.60;2.58;;;19.10;85.00;;;;;;5102184;28;20325;-80
2022/09/06 04:08:26;;;;;;;3.28;2.25;;;19.10;85.00;;;;;;5102132;28;20044;-80
2022/09/06 04:10:56;;;;;;;3.28;2.38;;;19.00;85.00;;;;;;5068144;28;20098;-80
2022/09/06 04:13:22;;;;;;;3.70;2.40;;;19.00;84.90;;;;;;5102209;28;20074;-80
2022/09/06 04:15:49;;;;;;;3.53;2.15;;;19.00;84.90;;;;;;5051526;28;20490;-80
2022/09/06 04:18:15;;;;;;;2.60;2.03;;;19.10;85.00;;;;;;5068373;28;20064;-80
2022/09/06 04:20:41;;;;;;;3.75;2.45;;;19.10;85.10;;;;;;5051438;28;20048;-80
2022/09/06 04:23:07;;;;;;;3.15;2.25;;;19.00;84.90;;;;;;5067843;28;20048;-80
2022/09/06 04:25:33;;;;;;;4.25;2.42;;;19.00;84.90;;;;;;5102046;28;20032;-80
2022/09/06 04:27:58;;;;;;;3.70;2.03;;;19.00;85.00;;;;;;5102061;28;20486;-80
2022/09/06 04:30:24;;;;;;;3.95;2.58;;;19.00;85.10;;;;;;5101695;28;20059;-80
2022/09/06 04:32:49;;;;;;;4.28;2.53;;;19.00;85.20;;;;;;5068159;28;20029;-80
2022/09/06 04:35:15;;;;;;;3.88;2.55;;;19.00;85.90;;;;;;5101985;28;20036;-80
2022/09/06 04:37:41;;;;;;;4.82;2.83;;;19.00;85.20;;;;;;5085176;28;20123;-80
2022/09/06 04:40:07;;;;;;;4.22;2.40;;;19.00;85.30;;;;;;5070622;28;20041;-80
2022/09/06 04:42:32;;;;;;;4.78;2.85;;;19.00;85.30;;;;;;5054941;28;20175;-80
2022/09/06 04:44:58;;;;;;;2.72;2.30;;;19.00;85.30;;;;;;5105393;28;20044;-80
2022/09/06 04:47:24;;;;;;;4.35;2.33;;;19.00;85.40;;;;;;5071464;28;20040;-80
2022/09/06 04:49:50;;;;;;;3.25;2.13;;;19.00;85.40;;;;;;5054819;28;20579;-80
2022/09/06 04:52:15;;;;;;;4.97;2.53;;;19.00;85.60;;;;;;5071822;28;20036;-80
2022/09/06 04:54:41;;;;;;;2.90;2.00;;;19.00;85.70;;;;;;5088496;28;20383;-80
2022/09/06 04:57:07;;;;;;;3.78;2.30;;;19.00;85.70;;;;;;5088672;28;20466;-80
2022/09/06 04:59:32;;;;;;;4.25;2.47;;;19.00;85.90;;;;;;5054604;28;20502;-80
2022/09/06 05:01:58;;;;;;;3.40;2.22;;;19.00;85.80;;;;;;5105016;28;20056;-80
2022/09/06 05:04:24;;;;;;;4.40;2.85;;;19.00;86.10;;;;;;5071356;28;20076;-80
2022/09/06 05:07:02;;;;;;;4.07;2.40;;;19.00;86.80;;;;;;5105192;28;20054;-80
2022/09/06 05:09:28;;;;;;;3.95;2.47;;;19.00;87.90;;;;;;5071319;28;20173;-79
2022/09/06 05:11:53;;;;;;;6.38;2.78;;;18.90;88.00;;;;;;5071096;28;20052;-79
2022/09/06 05:14:19;;;;;;;3.50;2.67;;;18.90;88.30;;;;;;5071182;28;20389;-79
2022/09/06 05:16:45;;;;;;;4.63;2.80;;;18.90;88.60;;;;;;5054405;28;20044;-79
2022/09/06 05:19:11;;;;;;;4.72;2.65;;;18.80;89.20;;;;;;5104909;28;20044;-79
2022/09/06 05:21:37;;;;;;;5.00;2.50;;;18.80;89.80;;;;;;5071130;28;20040;-79
2022/09/06 05:24:02;;;;;;;6.88;2.72;;;18.80;90.10;;;;;;5070703;28;20045;-79
2022/09/06 05:26:28;;;;;;;5.93;3.50;;;18.80;90.40;;;;;;5104696;28;20082;-79
2022/09/06 05:28:54;;;;;;;5.05;2.53;;;18.80;90.60;;;;;;5104738;28;20037;-79
2022/09/06 05:31:31;;;;;;;4.35;2.70;;;18.70;90.80;;;;;;5104437;28;20044;-79
2022/09/06 05:33:57;;;;;;;4.45;3.10;;;18.70;91.30;;;;;;5070706;28;20051;-79
2022/09/06 05:36:24;;;;;;;4.43;2.97;;;18.70;91.00;;;;;;5104770;28;20055;-79
2022/09/06 05:38:51;;;;;;;8.32;3.58;;;18.70;91.20;;;;;;5104623;28;20040;-79
2022/09/06 05:41:17;;;;;;;4.55;2.85;;;18.70;91.30;;;;;;5070647;28;20037;-79
2022/09/06 05:43:43;;;;;;;4.80;2.80;;;18.70;91.60;;;;;;5104684;28;20075;-79
2022/09/06 05:46:09;;;;;;;4.53;2.75;;;18.70;91.70;;;;;;5071799;28;20630;-79
2022/09/06 05:48:35;;;;;;;5.22;3.45;;;18.70;91.80;;;;;;5104625;28;20375;-79
2022/09/06 05:51:12;;;;;;;6.60;3.15;;;18.60;91.80;;;;;;5086812;28;20059;-78
2022/09/06 05:53:40;;;;;;;4.78;3.20;;;18.70;92.20;;;;;;5070595;28;20207;-79
2022/09/06 05:56:06;;;;;;;5.82;3.33;;;18.60;92.20;;;;;;5070050;28;20101;-79
2022/09/06 05:58:32;;;;;;;4.63;2.65;;;18.60;92.30;;;;;;5070380;28;20059;-79
2022/09/06 06:01:13;;;;;;;5.15;2.90;;;18.60;92.60;;;;;;5104211;28;20482;-79
2022/09/06 06:03:38;;;;;;;6.50;3.42;;;18.60;93.10;;;;;;5070035;28;20063;-79
2022/09/06 06:06:04;;;;;;;4.68;2.83;;;18.60;92.60;;;;;;5070104;28;20036;-79
2022/09/06 06:08:30;;;;;;;5.93;3.00;;;18.60;92.80;;;;;;5103807;28;20060;-78
2022/09/06 06:11:00;;;;;;;5.15;3.03;;;18.60;92.90;;;;;;5069518;28;20046;-78
2022/09/06 06:13:28;;;;;;;4.72;2.95;;;18.50;93.00;;;;;;5069745;28;20044;-78
2022/09/06 06:15:54;;;;;;;4.60;3.10;;;18.50;93.10;;;;;;5070174;28;20410;-78
2022/09/06 06:18:20;;;;;;;6.13;3.42;;;18.50;93.20;;;;;;5103966;28;20080;-79
2022/09/06 06:20:45;;;;;;;5.82;3.72;;;18.50;93.30;;;;;;5069735;28;20515;-78
2022/09/06 06:23:14;;;;;;;6.78;3.55;;;18.50;93.70;;;;;;5086076;28;20414;-79
2022/09/06 06:25:39;;;;;;;5.03;2.90;;;18.50;93.50;;;;;;5103619;28;20490;-78
2022/09/06 06:28:05;;;;;;;6.85;3.80;;;18.50;93.50;;;;;;5069865;28;20059;-78
2022/09/06 06:30:30;;;;;;;5.68;3.28;;;18.50;93.60;;;;;;5069560;28;20075;-78
2022/09/06 06:32:57;;;;;;;5.43;3.53;;;18.50;93.70;;;;;;5069554;28;20423;-79
2022/09/06 06:35:24;;;;;;;6.38;3.40;;;18.50;93.80;;;;;;5086377;28;20083;-79
2022/09/06 06:37:49;;;;;;;5.25;3.33;;;18.50;93.90;;;;;;5103417;28;20494;-79
2022/09/06 06:40:15;;;;;;;5.13;3.53;;;18.60;94.10;;;;;;5069424;28;20127;-79
2022/09/06 06:42:41;;;;;;;4.32;2.92;;;18.60;94.20;;;;;;5103311;28;20036;-79
2022/09/06 06:45:07;;;;;;;5.85;3.72;;;18.60;94.20;;;;;;5069205;28;20047;-79
2022/09/06 06:47:32;;;;;;;6.95;3.42;;;18.60;94.20;;;;;;5069635;28;20048;-79
2022/09/06 06:49:58;;;;;;;6.25;3.75;;;18.60;94.20;;;;;;5069235;28;20583;-79
2022/09/06 06:52:24;;;;;;;5.38;3.83;;;18.70;94.30;;;;;;5069097;28;20071;-79
2022/09/06 06:54:50;;;;;;;7.43;3.90;;;18.60;94.30;;;;;;5052626;28;20402;-79
2022/09/06 06:57:15;;;;;;;4.95;3.38;;;18.60;94.30;;;;;;5069190;28;20040;-79
2022/09/06 06:59:41;;;;;;;6.22;3.53;;;18.70;94.40;;;;;;5069156;28;20447;-79
2022/09/06 07:02:06;;;;;;;8.02;3.90;;;18.70;94.40;;;;;;5069726;28;20033;-79
2022/09/06 07:04:32;;;;;;;4.55;3.30;;;18.70;94.50;;;;;;5069053;28;20074;-79
2022/09/06 07:06:58;;;;;;;5.72;3.55;;;18.70;94.50;;;;;;5069063;28;20079;-79
2022/09/06 07:09:24;;;;;;;7.32;3.63;;;18.80;94.60;;;;;;5069106;28;20098;-79
2022/09/06 07:11:50;;;;;;;5.90;3.83;;;18.70;94.60;;;;;;5052410;28;20044;-79
2022/09/06 07:14:16;;;;;;;7.72;3.58;;;18.70;94.60;;;;;;5086083;28;20056;-79
2022/09/06 07:16:43;;;;;;;5.40;3.42;;;18.80;94.70;;;;;;5052529;28;20055;-79
2022/09/06 07:19:08;;;;;;;11.02;3.95;;;18.80;94.60;;;;;;5102536;28;20429;-79
2022/09/06 07:21:34;;;;;;;6.47;3.97;;;18.90;94.70;;;;;;5102548;28;20037;-79
2022/09/06 07:24:00;;;;;;;5.70;3.85;;;18.90;94.80;;;;;;5085343;28;20126;-78
2022/09/06 07:26:30;;;;;;;5.25;3.63;;;18.90;94.80;;;;;;5068669;28;20132;-79
2022/09/06 07:28:58;;;;;;;5.20;3.67;;;18.90;94.90;;;;;;5102438;28;20044;-79
2022/09/06 07:31:24;;;;;;;4.93;3.30;;;19.00;95.00;;;;;;5102418;28;20098;-79
2022/09/06 07:33:50;;;;;;;5.10;3.55;;;19.10;94.90;;;;;;5102739;28;20033;-79
2022/09/06 07:36:16;;;;;;;7.28;4.13;;;19.20;95.00;;;;;;5102559;28;20142;-79
2022/09/06 07:38:42;;;;;;;5.45;3.40;;;19.30;95.00;;;;;;5052131;28;20072;-79
2022/09/06 07:41:09;;;;;;;5.38;3.40;;;19.30;94.90;;;;;;5102235;28;20526;-79
2022/09/06 07:43:35;;;;;;;5.72;3.72;;;19.40;94.80;;;;;;5070044;28;20111;-79
2022/09/06 07:46:03;;;;;;;6.68;4.10;;;19.40;94.70;;;;;;5068524;28;20041;-79
2022/09/06 07:48:30;;;;;;;4.70;3.33;;;19.40;94.60;;;;;;5068751;28;20106;-78
2022/09/06 07:51:12;;;;;;;6.35;3.92;;;19.50;94.60;;;;;;5068147;28;20045;-79
2022/09/06 07:53:40;;;;;;;6.18;3.80;;;19.60;94.80;;;;;;5068428;28;20045;-79
2022/09/06 07:56:08;;;;;;;6.68;4.28;;;19.60;94.70;;;;;;5068568;28;20521;-79
2022/09/06 07:58:34;;;;;;;6.13;3.60;;;19.70;94.60;;;;;;5085404;28;20037;-79
2022/09/06 08:01:18;;;;;;;6.50;4.40;;;19.70;94.60;;;;;;5068281;28;20041;-79
2022/09/06 08:03:45;;;;;;;6.88;3.92;;;19.80;95.30;;;;;;5085616;28;20498;-79
2022/09/06 08:06:11;;;;;;;6.45;3.67;;;19.80;94.60;;;;;;5051689;28;20079;-79
2022/09/06 08:08:38;;;;;;;6.90;3.63;;;19.80;94.50;;;;;;5052001;28;20075;-79
2022/09/06 08:11:06;;;;;;;6.47;4.15;;;19.90;94.40;;;;;;5101875;28;20063;-79
2022/09/06 08:13:32;;;;;;;8.23;4.18;;;19.90;94.40;;;;;;5102233;28;20037;-79
2022/09/06 08:15:59;;;;;;;7.55;4.63;;;19.90;94.30;;;;;;5105955;28;20048;-79
2022/09/06 08:18:25;;;;;;;5.30;3.97;;;20.00;94.30;;;;;;5072210;28;20079;-79
2022/09/06 08:20:51;;;;;;;5.70;4.10;;;20.00;94.20;;;;;;5106082;28;20068;-79
2022/09/06 08:23:16;;;;;;;6.47;3.90;;;20.00;94.10;;;;;;5073159;28;20146;-79
2022/09/06 08:25:42;;;;;;;6.15;4.00;;;20.10;94.30;;;;;;5071851;28;20481;-79
2022/09/06 08:28:07;;;;;;;6.88;4.55;;;20.10;94.50;;;;;;5071845;28;20077;-79
2022/09/06 08:30:34;;;;;;;6.03;4.00;;;20.10;94.10;;;;;;5105674;28;20132;-79
2022/09/06 08:33:00;;;;;;;9.02;4.25;;;20.20;94.00;;;;;;5105729;28;20041;-79
2022/09/06 08:35:25;;;;;;;5.75;3.95;;;20.10;94.00;;;;;;5055269;28;20044;-79
2022/09/06 08:37:51;;;;;;;6.20;4.07;;;20.20;94.00;;;;;;5105717;28;20045;-79
2022/09/06 08:40:21;;;;;;;7.22;4.60;;;20.20;94.00;;;;;;5105692;28;20040;-79
2022/09/06 08:42:47;;;;;;;5.68;3.42;;;20.30;93.90;;;;;;5105587;28;20048;-79
2022/09/06 08:45:18;;;;;;;7.13;4.10;;;20.30;93.90;;;;;;5105862;28;20047;-79
2022/09/06 08:47:44;;;;;;;7.18;3.65;;;20.40;93.90;;;;;;5105647;28;20044;-79
2022/09/06 08:50:10;;;;;;;6.30;3.78;;;20.40;93.80;;;;;;5071496;28;20044;-79
2022/09/06 08:53:04;;;;;;;5.97;4.00;;;20.50;93.70;;;;;;5071324;28;20090;-79
2022/09/06 08:55:54;;;;;;;4.80;3.35;;;20.50;94.10;;;;;;5105359;28;20044;-79
2022/09/06 08:58:47;;;;;;;6.90;3.90;;;20.60;94.40;;;;;;5071623;28;20045;-79
2022/09/06 09:01:24;;;;;;;6.10;3.85;;;20.60;93.90;;;;;;5071626;28;20071;-79
2022/09/06 09:03:54;;;;;;;5.00;3.45;;;20.70;93.80;;;;;;5105272;28;20124;-79
2022/09/06 09:06:21;;;;;;;4.85;3.35;;;20.80;93.70;;;;;;5105202;28;20494;-79
2022/09/06 09:08:56;;;;;;;5.63;3.13;;;20.90;93.70;;;;;;5105173;28;20040;-79
2022/09/06 09:11:24;;;;;;;5.50;3.55;;;20.90;93.70;;;;;;5071250;28;20041;-79
2022/09/06 09:13:58;;;;;;;4.20;2.90;;;20.90;93.60;;;;;;5054414;28;20501;-79
2022/09/06 09:16:24;;;;;;;5.13;3.58;;;21.00;93.60;;;;;;5072312;28;20036;-79
2022/09/06 09:19:00;;;;;;;5.13;3.00;;;21.00;93.50;;;;;;5071349;28;20071;-79
2022/09/06 09:21:26;;;;;;;6.00;3.17;;;21.10;93.50;;;;;;5071068;28;20040;-79
2022/09/06 09:23:55;;;;;;;5.38;3.28;;;21.10;93.50;;;;;;5104638;28;20060;-79
2022/09/06 09:26:24;;;;;;;4.45;2.88;;;21.10;93.40;;;;;;5053978;28;20040;-78
2022/09/06 09:29:16;;;;;;;5.90;3.03;;;21.10;93.40;;;;;;5070641;28;20470;-79
2022/09/06 09:31:48;;;;;;;4.38;3.03;;;21.20;93.50;;;;;;5067733;28;20057;-79
2022/09/06 09:34:38;;;;;;;6.32;2.72;;;21.20;93.30;;;;;;5054178;28;20070;-79
2022/09/06 09:37:23;;;;;;;6.20;3.60;;;21.30;93.10;;;;;;5053767;28;20048;-79
2022/09/06 09:39:53;;;;;;;6.97;3.38;;;21.30;92.90;;;;;;5070556;28;20490;-79
2022/09/06 09:42:29;;;;;;;4.88;3.00;;;21.30;92.90;;;;;;5104404;28;20071;-79
2022/09/06 09:44:56;;;;;;;5.25;3.00;;;21.40;92.90;;;;;;5104170;28;20047;-79
2022/09/06 09:47:26;;;;;;;6.00;3.60;;;21.40;92.70;;;;;;5070865;28;20040;-79
2022/09/06 09:49:52;;;;;;;5.20;3.03;;;21.50;92.40;;;;;;5104556;28;20128;-79
2022/09/06 09:52:28;;;;;;;4.85;3.00;;;21.50;92.40;;;;;;5070513;28;20571;-79
2022/09/06 09:54:59;;;;;;;;;;;21.50;92.30;;;;;;5054062;28;20552;-79
2022/09/06 09:57:25;;;;;;;6.85;2.97;;;21.60;92.30;;;;;;5070432;28;19921;-79
2022/09/06 10:00:02;;;;;;;3.72;2.20;;;21.60;92.00;;;;;;5053536;28;20131;-79
2022/09/06 10:02:39;;;;;;;3.78;2.17;;;21.60;91.80;;;;;;5103981;28;20048;-79
2022/09/06 10:05:18;;;;;;;3.80;2.20;;;21.70;91.30;;;;;;5070262;28;20063;-79
2022/09/06 10:07:53;;;;;;;3.47;2.25;;;21.70;91.30;;;;;;5053788;28;20127;-79
2022/09/06 10:10:21;;;;;;;4.90;2.60;;;21.70;91.40;;;;;;5053321;28;20516;-79
2022/09/06 10:12:46;;;;;;;4.78;2.88;;;21.80;91.30;;;;;;5069982;28;20159;-79
2022/09/06 10:15:38;;;;;;;3.67;2.28;;;21.80;91.00;;;;;;5069678;28;20171;-79
2022/09/06 10:18:03;;;;;;;4.00;2.15;;;21.90;90.40;;;;;;5103906;28;20040;-79
2022/09/06 10:20:41;;;;;;;4.68;2.50;;;22.00;90.60;;;;;;5069996;28;20056;-78
2022/09/06 10:23:40;;;;;;;3.28;2.33;;;22.10;90.50;;;;;;5052854;28;20057;-79
2022/09/06 10:26:47;;;;;;;3.92;2.65;;;22.00;90.30;;;;;;5053125;28;20048;-79
2022/09/06 10:29:14;;;;;;;3.33;1.80;;;22.00;90.30;;;;;;5045210;28;20088;-79
2022/09/06 10:31:52;;;;;;;3.97;1.67;;;22.10;90.50;;;;;;5052999;28;20456;-79
2022/09/06 10:35:03;;;;;;;3.63;2.53;;;22.10;90.20;;;;;;5069726;28;20055;-78
2022/09/06 10:37:41;;;;;;;4.30;2.33;;;22.10;89.80;;;;;;5032876;28;20047;-78
2022/09/06 10:40:09;;;;;;;4.13;2.42;;;22.10;90.00;;;;;;5052809;28;20047;-79
2022/09/06 10:42:45;;;;;;;4.22;2.50;;;22.20;90.20;;;;;;5052782;28;20036;-79
2022/09/06 10:45:29;;;;;;;3.42;2.10;;;22.20;90.20;;;;;;5070639;28;20046;-79
2022/09/06 10:48:15;;;;;;;3.38;2.38;;;22.20;90.30;;;;;;5069178;28;20157;-79
2022/09/06 10:50:41;;;;;;;3.10;2.03;;;22.30;90.40;;;;;;5103064;28;20040;-79
2022/09/06 10:53:12;;;;;;;2.83;1.85;;;22.40;90.30;;;;;;5052559;28;20066;-79
2022/09/06 10:55:40;;;;;;;3.10;2.10;;;22.40;90.10;;;;;;5103011;28;20045;-79
2022/09/06 10:58:09;;;;;;;3.08;2.10;;;22.40;89.60;;;;;;5069381;28;20041;-79
2022/09/06 11:00:47;;;;;;;3.33;2.25;;;22.50;89.20;;;;;;5069291;28;20052;-79
2022/09/06 11:03:25;;;;;;;3.88;2.45;;;22.50;89.20;;;;;;5069103;28;20119;-78
2022/09/06 11:05:55;;;;;;;4.72;1.90;;;22.50;88.40;;;;;;5068796;28;20382;-79
2022/09/06 11:08:43;;;;;;;3.28;1.92;;;22.50;88.40;;;;;;5103080;28;20050;-78
2022/09/06 11:11:18;;;;;;;3.35;1.95;;;22.50;88.40;;;;;;5052467;28;20048;-78
2022/09/06 11:13:44;;;;;;;5.25;2.28;;;22.60;88.70;;;;;;5103029;28;20115;-79
2022/09/06 11:16:29;;;;;;;3.03;1.90;;;22.60;88.60;;;;;;5102712;28;20178;-79
2022/09/06 11:19:01;;;;;;;3.28;2.05;;;22.60;87.10;;;;;;5068916;28;20465;-79
2022/09/06 11:22:04;;;;;;;4.00;2.10;;;22.70;87.30;;;;;;5102821;28;20048;-79
2022/09/06 11:24:56;;;;;;;2.65;1.83;;;22.70;86.70;;;;;;5068502;28;20061;-79
2022/09/06 11:27:34;;;;;;;4.13;2.28;;;22.80;87.50;;;;;;5051921;28;20075;-79
2022/09/06 11:30:01;;;;;;;2.75;1.67;;;22.90;86.70;;;;;;5068742;28;20048;-78
2022/09/06 11:32:38;;;;;;;2.72;1.45;;;22.90;86.60;;;;;;5052369;28;20094;-78
2022/09/06 11:35:19;;;;;;;3.15;1.80;;;22.90;86.10;;;;;;5102715;28;20399;-79
2022/09/06 11:37:48;;;;;;;5.57;1.67;;;22.90;86.00;;;;;;5068767;28;20041;-78
2022/09/06 11:40:25;;;;;;;3.95;2.13;;;22.90;86.10;;;;;;5102620;28;20044;-78
2022/09/06 11:42:51;;;;;;;2.45;1.65;;;23.00;85.30;;;;;;5052142;28;20044;-79
2022/09/06 11:45:20;;;;;;;2.67;1.58;;;23.00;85.20;;;;;;5068903;28;20494;-79
2022/09/06 11:47:48;;;;;;;2.10;1.23;;;23.00;85.30;;;;;;5069540;28;20044;-78
2022/09/06 11:50:52;;;;;;;1.85;1.13;;;23.10;85.30;;;;;;5106919;28;20032;-79
2022/09/06 11:53:18;;;;;;;2.75;1.50;;;23.20;83.30;;;;;;5050697;28;20052;-79
2022/09/06 11:56:10;;;;;;;2.65;1.52;;;23.30;84.40;;;;;;5055965;28;20502;-79
2022/09/06 11:58:39;;;;;;;2.90;1.70;;;23.30;83.90;;;;;;5055782;28;20040;-78
2022/09/06 12:01:15;;;;;;;3.17;1.73;;;23.30;84.40;;;;;;5072405;28;20506;-79
2022/09/06 12:03:46;;;;;;;4.40;1.60;;;23.40;83.30;;;;;;5106432;28;20080;-78
2022/09/06 12:06:27;;;;;;;3.28;1.85;;;23.40;83.40;;;;;;5055736;28;20036;-79
2022/09/06 12:08:54;;;;;;;1.95;1.40;;;23.50;83.20;;;;;;5106827;28;20437;-78
2022/09/06 12:11:35;;;;;;;2.95;1.85;;;23.50;83.00;;;;;;5105859;28;20557;-78
2022/09/06 12:14:22;;;;;;;2.78;1.73;;;23.50;82.60;;;;;;5055907;28;20077;-79
2022/09/06 12:16:59;;;;;;;2.95;1.75;;;23.50;82.20;;;;;;5055638;28;20032;-79
2022/09/06 12:19:44;;;;;;;2.97;1.63;;;23.50;81.20;;;;;;5089278;28;20044;-79
2022/09/06 12:22:28;;;;;;;1.95;1.30;;;23.50;79.80;;;;;;5072030;28;20056;-79
2022/09/06 12:25:04;;;;;;;1.95;1.20;;;23.60;80.10;;;;;;5072079;28;20144;-79
2022/09/06 12:27:43;;;;;;;2.20;1.17;;;23.60;80.60;;;;;;5072201;28;20048;-79
2022/09/06 12:30:12;;;;;;;2.25;1.30;;;23.70;79.80;;;;;;5105643;28;20044;-79
2022/09/06 12:32:45;;;;;;;2.97;1.67;;;23.70;80.20;;;;;;5072162;28;20106;-80
2022/09/06 12:35:20;;;;;;;2.00;1.10;;;23.70;79.30;;;;;;5071839;28;20048;-79
2022/09/06 12:37:57;;;;;;;2.15;1.33;;;23.70;79.20;;;;;;5105858;28;20047;-79
2022/09/06 12:40:25;;;;;;;2.83;1.60;;;23.70;79.10;;;;;;5071784;28;20048;-79
2022/09/06 12:42:52;;;;;;;3.15;1.58;;;23.70;79.30;;;;;;5105614;28;20051;-79
2022/09/06 12:45:20;;;;;;;2.05;1.45;;;23.70;79.10;;;;;;5071671;28;20050;-79
2022/09/06 12:47:46;;;;;;;2.53;1.58;;;23.80;79.20;;;;;;5071842;28;20130;-79
2022/09/06 12:50:24;;;;;;;2.28;1.42;;;23.80;78.90;;;;;;5071698;28;20087;-79
2022/09/06 12:52:58;;;;;;;2.80;1.50;;;23.80;78.60;;;;;;5054618;28;20577;-79
2022/09/06 12:55:37;;;;;;;3.03;1.42;;;23.80;78.80;;;;;;5105446;28;20037;-79
2022/09/06 12:58:12;;;;;;;2.50;1.58;;;23.90;78.70;;;;;;5105453;28;20048;-79
2022/09/06 13:00:51;;;;;;;2.35;1.58;;;23.90;78.60;;;;;;5104357;28;20084;-79
2022/09/06 13:03:55;;;;;;;2.28;1.45;;;23.90;77.10;;;;;;5105195;28;20047;-79
2022/09/06 13:06:23;;;;;;;1.98;1.15;;;23.90;77.80;;;;;;5021354;28;20110;-79
2022/09/06 13:08:52;;;;;;;3.47;1.45;;;23.90;78.10;;;;;;5105170;28;20047;-79